Time;durP1;ratioP1;P1;durP2;ratioP2;P2;SDS_P1;SDS_P2;PMS_P1;PMS_P2;Temp;Humidity;BMP_temperature;BMP_pressure;BME280_temperature;BME280_humidity;BME280_pressure;Samples;Min_cycle;Max_cycle;Signal;HPM_P1;HPM_P2
2023/05/19 00:01:18;;;;;;;9.40;8.40;;;;;;;19.79;49.20;100731.69;109827;1278;138508;-69
2023/05/19 00:04:04;;;;;;;9.80;8.50;;;;;;;19.78;49.14;100731.55;109946;1271;22977;-68
2023/05/19 00:06:31;;;;;;;10.60;8.80;;;;;;;19.73;49.69;100727.78;110012;1278;22885;-69
2023/05/19 00:09:01;;;;;;;9.90;8.50;;;;;;;19.71;49.91;100731.53;109798;1272;137882;-72
2023/05/19 00:11:28;;;;;;;7.70;7.10;;;;;;;19.68;49.94;100732.60;109994;1280;22336;-72
2023/05/19 00:13:57;;;;;;;9.30;8.50;;;;;;;19.65;50.03;100740.30;109838;1280;139040;-68
2023/05/19 00:16:25;;;;;;;8.70;7.60;;;;;;;19.64;50.26;100739.34;109874;1275;139146;-72
2023/05/19 00:18:52;;;;;;;9.90;8.70;;;;;;;19.56;50.33;100728.75;110001;1276;22399;-72
2023/05/19 00:21:19;;;;;;;8.00;7.20;;;;;;;19.61;50.42;100739.63;109702;1275;137613;-73
2023/05/19 00:23:46;;;;;;;9.50;7.60;;;;;;;19.60;50.54;100738.19;109891;1279;22228;-69
2023/05/19 00:26:13;;;;;;;7.70;7.00;;;;;;;19.58;50.87;100738.04;109908;1278;137581;-67
2023/05/19 00:28:41;;;;;;;10.70;7.00;;;;;;;19.56;50.90;100735.95;109902;1279;139063;-67
2023/05/19 00:31:08;;;;;;;7.70;6.90;;;;;;;19.56;50.93;100745.08;110032;1280;22282;-68
2023/05/19 00:33:35;;;;;;;6.60;6.10;;;;;;;19.55;51.12;100745.59;109868;1276;138319;-69
2023/05/19 00:36:03;;;;;;;6.80;6.20;;;;;;;19.54;51.24;100744.82;110008;1280;23099;-67
2023/05/19 00:38:31;;;;;;;7.80;6.60;;;;;;;19.54;51.28;100746.11;110002;1279;22435;-73
2023/05/19 00:41:00;;;;;;;8.70;6.80;;;;;;;19.54;51.49;100747.30;109832;1278;138106;-69
2023/05/19 00:43:28;;;;;;;8.10;5.10;;;;;;;19.54;51.59;100751.74;110085;1277;23062;-74
2023/05/19 00:45:56;;;;;;;5.90;5.40;;;;;;;19.54;51.96;100754.59;109960;1277;138319;-73
2023/05/19 00:48:24;;;;;;;6.70;6.10;;;;;;;19.51;52.26;100755.09;109771;1273;138054;-69
2023/05/19 00:50:53;;;;;;;6.80;6.20;;;;;;;19.49;53.03;100757.19;110035;1279;22854;-75
2023/05/19 00:53:23;;;;;;;6.10;5.60;;;;;;;19.42;54.98;100761.70;109848;1278;138582;-74
2023/05/19 00:55:49;;;;;;;7.60;6.00;;;;;;;19.32;55.68;100765.11;109869;1276;22804;-69
2023/05/19 00:58:17;;;;;;;6.50;5.90;;;;;;;19.23;55.97;100761.55;109946;1276;137392;-69
2023/05/19 01:00:44;;;;;;;8.20;6.90;;;;;;;19.18;55.72;100762.73;109858;1274;140959;-69
2023/05/19 01:03:11;;;;;;;6.10;5.60;;;;;;;19.14;56.31;100764.59;109943;1281;22180;-69
2023/05/19 01:05:43;;;;;;;8.10;5.30;;;;;;;19.10;56.90;100763.67;109868;1280;138139;-68
2023/05/19 01:08:10;;;;;;;8.50;6.80;;;;;;;19.07;57.02;100765.13;109896;1277;137900;-68
2023/05/19 01:10:37;;;;;;;6.90;6.40;;;;;;;19.04;57.47;100770.62;110114;1279;22232;-68
2023/05/19 01:13:05;;;;;;;6.80;5.00;;;;;;;18.99;57.60;100772.49;109826;1274;137771;-67
2023/05/19 01:15:55;;;;;;;7.80;5.30;;;;;;;18.93;57.47;100777.59;109945;1280;22191;-72
2023/05/19 01:18:47;;;;;;;6.90;6.10;;;;;;;18.89;56.98;100780.67;109819;1279;140860;-69
2023/05/19 01:21:59;;;;;;;6.00;5.40;;;;;;;18.89;57.01;100781.59;109914;1278;138161;-69
2023/05/19 01:24:32;;;;;;;6.00;4.70;;;;;;;18.89;57.07;100787.11;110109;1273;139826;-71
2023/05/19 01:27:40;;;;;;;6.80;4.90;;;;;;;18.89;57.23;100788.03;110114;1279;22315;-74
2023/05/19 01:30:22;;;;;;;6.00;4.80;;;;;;;18.91;57.51;100792.50;109878;1279;137631;-68
2023/05/19 01:32:52;;;;;;;5.80;4.80;;;;;;;18.90;57.58;100791.89;109914;1278;139212;-72
2023/05/19 01:35:23;;;;;;;4.80;4.50;;;;;;;18.90;57.70;100790.48;110110;1279;22228;-73
2023/05/19 01:37:57;;;;;;;6.10;4.90;;;;;;;18.90;58.04;100795.13;109926;1273;138874;-69
2023/05/19 01:40:25;;;;;;;7.40;4.60;;;;;;;18.89;58.38;100795.27;110019;1274;138326;-71
2023/05/19 01:42:54;;;;;;;6.70;4.80;;;;;;;18.88;58.65;100796.86;110042;1274;22306;-70
2023/05/19 01:45:28;;;;;;;9.00;4.70;;;;;;;18.86;59.15;100796.19;109910;1273;138076;-77
2023/05/19 01:47:57;;;;;;;5.40;4.70;;;;;;;18.84;59.64;100796.13;110111;1276;22366;-68
2023/05/19 01:50:25;;;;;;;9.20;4.00;;;;;;;18.82;60.14;100800.65;109903;1279;137449;-70
2023/05/19 01:52:52;;;;;;;7.90;4.40;;;;;;;18.79;60.64;100799.27;109991;1274;139546;-72
2023/05/19 01:55:21;;;;;;;6.00;4.40;;;;;;;18.77;61.10;100802.39;110095;1279;22300;-75
2023/05/19 01:58:05;;;;;;;7.20;4.30;;;;;;;18.75;61.48;100793.59;109986;1276;138413;-84
2023/05/19 02:00:52;;;;;;;5.10;4.30;;;;;;;18.73;61.72;100792.81;109936;1274;139993;-67
2023/05/19 02:03:42;;;;;;;4.60;4.10;;;;;;;18.68;62.41;100791.69;110201;1278;22251;-70
2023/05/19 02:06:14;;;;;;;7.20;4.30;;;;;;;18.71;62.99;100801.33;110001;1279;138818;-73
2023/05/19 02:08:50;;;;;;;9.30;4.60;;;;;;;18.71;63.57;100802.66;110018;1278;138788;-69
2023/05/19 02:11:27;;;;;;;4.70;4.10;;;;;;;18.71;64.41;100807.85;110196;1273;22229;-71
2023/05/19 02:13:59;;;;;;;4.50;3.90;;;;;;;18.70;64.51;100800.95;110030;1274;137384;-72
2023/05/19 02:16:27;;;;;;;7.20;3.90;;;;;;;18.69;64.77;100795.38;109893;1275;138283;-75
2023/05/19 02:18:55;;;;;;;4.40;3.90;;;;;;;18.69;64.91;100796.30;110023;1279;23192;-69
2023/05/19 02:21:21;;;;;;;6.40;4.10;;;;;;;18.70;65.03;100801.09;109992;1273;137612;-74
2023/05/19 02:23:49;;;;;;;8.70;4.10;;;;;;;18.72;65.07;100803.02;110045;1279;22368;-83
2023/05/19 02:26:19;;;;;;;12.30;4.30;;;;;;;18.74;65.24;100803.83;110019;1273;137293;-72
2023/05/19 02:28:45;;;;;;;3.80;3.50;;;;;;;18.75;65.67;100804.80;110017;1276;139137;-67
2023/05/19 02:31:12;;;;;;;3.80;3.50;;;;;;;18.76;66.44;100807.08;110009;1273;22503;-70
2023/05/19 02:33:38;;;;;;;4.00;3.50;;;;;;;18.75;66.81;100809.41;109905;1279;139289;-71
2023/05/19 02:36:05;;;;;;;9.40;3.70;;;;;;;18.73;66.88;100811.42;109977;1272;138026;-71
2023/05/19 02:38:32;;;;;;;6.40;3.70;;;;;;;18.73;66.81;100810.27;110003;1279;22947;-70
2023/05/19 02:40:59;;;;;;;4.20;3.80;;;;;;;18.73;67.06;100813.89;109983;1277;137516;-71
2023/05/19 02:43:26;;;;;;;4.80;3.70;;;;;;;18.73;67.09;100815.08;110118;1277;22232;-69
2023/05/19 02:45:52;;;;;;;4.70;3.90;;;;;;;18.73;67.30;100815.59;109978;1277;138421;-72
2023/05/19 02:48:19;;;;;;;6.40;3.40;;;;;;;18.73;67.27;100818.45;109989;1274;140858;-69
2023/05/19 02:50:46;;;;;;;4.10;3.70;;;;;;;18.67;67.48;100812.94;109958;1279;22425;-71
2023/05/19 02:53:12;;;;;;;5.30;3.70;;;;;;;18.60;67.74;100801.40;109925;1273;138658;-67
2023/05/19 02:55:39;;;;;;;4.40;3.70;;;;;;;18.72;67.83;100828.56;110129;1272;22260;-72
2023/05/19 02:58:06;;;;;;;4.10;3.80;;;;;;;18.71;67.85;100828.04;109986;1279;137670;-70
2023/05/19 03:00:33;;;;;;;13.10;3.80;;;;;;;18.69;68.15;100832.21;109980;1270;139062;-71
2023/05/19 03:03:01;;;;;;;5.30;3.70;;;;;;;18.68;68.32;100836.73;109964;1277;22353;-75
2023/05/19 03:05:29;;;;;;;3.70;3.20;;;;;;;18.66;68.54;100837.20;110016;1278;139519;-72
2023/05/19 03:07:55;;;;;;;4.50;3.50;;;;;;;18.65;68.54;100832.53;110027;1276;22357;-69
2023/05/19 03:10:22;;;;;;;4.20;3.90;;;;;;;18.64;68.68;100844.66;109932;1272;137786;-69
2023/05/19 03:12:49;;;;;;;6.70;3.50;;;;;;;18.64;68.87;100841.69;109915;1274;137932;-72
2023/05/19 03:15:17;;;;;;;4.70;3.40;;;;;;;18.62;69.10;100843.33;110208;1272;22300;-70
2023/05/19 03:17:44;;;;;;;5.60;3.80;;;;;;;18.60;69.22;100849.91;110040;1272;137503;-76
2023/05/19 03:20:11;;;;;;;13.90;4.10;;;;;;;18.58;69.18;100845.75;109895;1273;138181;-70
2023/05/19 03:22:38;;;;;;;9.30;3.00;;;;;;;18.57;69.35;100845.77;110056;1270;22247;-75
2023/05/19 03:25:05;;;;;;;3.80;3.30;;;;;;;18.56;69.55;100843.41;109937;1279;138775;-76
2023/05/19 03:27:32;;;;;;;10.40;3.70;;;;;;;18.54;69.50;100844.84;110024;1279;22384;-70
2023/05/19 03:29:58;;;;;;;4.10;3.50;;;;;;;18.54;69.34;100844.73;110021;1273;139219;-67
2023/05/19 03:32:25;;;;;;;3.50;3.20;;;;;;;18.55;69.35;100844.48;109936;1272;139396;-71
2023/05/19 03:34:52;;;;;;;9.20;3.80;;;;;;;18.56;69.20;100842.77;110050;1276;22183;-69
2023/05/19 03:37:19;;;;;;;4.40;3.20;;;;;;;18.58;69.26;100841.60;110197;1273;137880;-71
2023/05/19 03:39:45;;;;;;;7.80;4.00;;;;;;;18.60;69.08;100844.92;110017;1274;22202;-71
2023/05/19 03:42:13;;;;;;;8.10;3.30;;;;;;;18.62;69.10;100846.60;109960;1279;137456;-71
2023/05/19 03:44:40;;;;;;;7.10;3.40;;;;;;;18.64;68.91;100842.19;109956;1272;138278;-70
2023/05/19 03:47:06;;;;;;;3.30;3.10;;;;;;;18.67;68.76;100842.96;109988;1272;22445;-66
2023/05/19 03:50:01;;;;;;;4.10;3.00;;;;;;;18.70;68.62;100844.48;109930;1276;137350;-70
2023/05/19 03:52:46;;;;;;;6.10;3.10;;;;;;;18.71;68.53;100851.33;110088;1274;139332;-69
2023/05/19 03:55:28;;;;;;;3.80;3.40;;;;;;;18.72;68.37;100852.44;110043;1271;23014;-69
2023/05/19 03:57:55;;;;;;;4.50;3.30;;;;;;;18.74;68.32;100852.96;109951;1279;138052;-69
2023/05/19 04:00:22;;;;;;;9.40;3.30;;;;;;;18.76;68.08;100855.71;109993;1273;139357;-69
2023/05/19 04:02:50;;;;;;;3.60;2.60;;;;;;;18.77;68.07;100857.43;109933;1270;23075;-69
2023/05/19 04:05:17;;;;;;;6.40;3.10;;;;;;;18.79;68.11;100856.67;109830;1270;139099;-71
2023/05/19 04:07:45;;;;;;;9.00;2.90;;;;;;;18.81;68.00;100860.15;110015;1270;22284;-69
2023/05/19 04:10:12;;;;;;;6.80;2.90;;;;;;;18.82;67.96;100856.77;109847;1270;138127;-73
2023/05/19 04:12:39;;;;;;;3.10;2.80;;;;;;;18.83;67.89;100853.40;110020;1270;141463;-68
2023/05/19 04:15:06;;;;;;;4.70;3.30;;;;;;;18.85;67.78;100853.24;110149;1270;23298;-81
2023/05/19 04:17:33;;;;;;;6.50;3.20;;;;;;;18.88;67.65;100854.00;110002;1271;138480;-67
2023/05/19 04:20:00;;;;;;;4.90;2.70;;;;;;;18.88;67.78;100852.45;110053;1270;22323;-75
2023/05/19 04:22:28;;;;;;;2.60;2.20;;;;;;;18.89;67.79;100857.10;109925;1272;137280;-69
2023/05/19 04:24:55;;;;;;;9.20;2.80;;;;;;;18.89;67.97;100862.13;109960;1270;137670;-70
2023/05/19 04:27:21;;;;;;;6.50;2.90;;;;;;;18.89;67.92;100869.52;110068;1271;22404;-63
2023/05/19 04:29:49;;;;;;;5.40;3.90;;;;;;;18.87;67.91;100874.63;109982;1270;137623;-74
2023/05/19 04:32:18;;;;;;;4.90;3.00;;;;;;;18.83;68.14;100869.14;110032;1270;137950;-70
2023/05/19 04:34:45;;;;;;;5.80;3.70;;;;;;;18.83;68.22;100873.55;110018;1272;22420;-69
2023/05/19 04:37:19;;;;;;;4.70;3.40;;;;;;;18.84;68.29;100881.13;109983;1270;141055;-72
2023/05/19 04:39:45;;;;;;;6.70;3.30;;;;;;;18.85;68.97;100885.70;110215;1270;22403;-70
2023/05/19 04:42:12;;;;;;;7.10;2.60;;;;;;;18.82;69.31;100888.81;109973;1270;137785;-77
2023/05/19 04:44:39;;;;;;;3.80;2.60;;;;;;;18.78;69.53;100888.14;110063;1270;137653;-72
2023/05/19 04:47:07;;;;;;;2.90;2.70;;;;;;;18.76;69.61;100891.65;110167;1270;22346;-72
2023/05/19 04:49:37;;;;;;;4.70;3.10;;;;;;;18.77;69.34;100891.23;110051;1270;137625;-71
2023/05/19 04:52:11;;;;;;;4.80;2.50;;;;;;;18.79;69.08;100890.57;109974;1270;138213;-72
2023/05/19 04:54:40;;;;;;;2.90;2.60;;;;;;;18.79;69.23;100891.70;110138;1270;22295;-71
2023/05/19 04:57:09;;;;;;;7.00;2.80;;;;;;;18.78;69.40;100887.02;109836;1271;138593;-72
2023/05/19 04:59:37;;;;;;;6.80;3.10;;;;;;;18.78;69.02;100883.39;109999;1279;22931;-73
2023/05/19 05:02:05;;;;;;;3.80;2.80;;;;;;;18.81;68.82;100883.80;109935;1270;137951;-66
2023/05/19 05:04:34;;;;;;;8.30;3.50;;;;;;;18.82;68.48;100893.30;109967;1273;140492;-71
2023/05/19 05:07:01;;;;;;;4.60;3.00;;;;;;;18.84;68.73;100891.98;110057;1274;22904;-70
2023/05/19 05:11:17;;;;;;;4.70;3.20;;;;;;;18.90;68.56;100896.19;104518;1298;545045;-74
2023/05/19 05:13:45;;;;;;;3.90;2.60;;;;;;;18.88;68.48;100897.83;106174;1278;139188;-72
2023/05/19 05:16:14;;;;;;;4.00;2.90;;;;;;;18.81;68.54;100886.67;106301;1281;137402;-73
2023/05/19 05:18:41;;;;;;;2.80;2.50;;;;;;;18.80;68.47;100885.77;106481;1279;22523;-77
2023/05/19 05:21:11;;;;;;;4.30;3.60;;;;;;;18.87;68.35;100901.63;106199;1279;139002;-70
2023/05/19 05:23:39;;;;;;;5.20;3.10;;;;;;;18.85;67.91;100908.30;106304;1280;22528;-78
2023/05/19 05:28:14;;;;;;;3.20;3.00;;;;;;;18.83;67.50;100909.70;103469;1305;545427;-70
2023/05/19 05:30:42;;;;;;;4.90;3.30;;;;;;;18.80;67.63;100913.77;105524;1293;24270;-69
2023/05/19 05:33:10;;;;;;;3.10;2.40;;;;;;;18.80;67.53;100916.58;105520;1287;137063;-72
2023/05/19 05:35:38;;;;;;;7.70;3.30;;;;;;;18.80;67.32;100918.96;105508;1285;22540;-69
2023/05/19 05:38:05;;;;;;;3.20;2.90;;;;;;;18.80;67.44;100922.89;105550;1291;137991;-70
2023/05/19 05:40:33;;;;;;;5.50;3.20;;;;;;;18.81;67.19;100922.27;105577;1291;139334;-71
2023/05/19 05:43:00;;;;;;;3.60;3.30;;;;;;;18.83;67.08;100926.64;105598;1288;266835;-67
2023/05/19 05:45:29;;;;;;;4.00;3.50;;;;;;;18.86;66.94;100927.31;106389;1274;138698;-68
2023/05/19 05:47:57;;;;;;;7.00;3.10;;;;;;;18.88;66.62;100931.36;106284;1280;23902;-72
2023/05/19 05:50:24;;;;;;;3.80;3.50;;;;;;;18.89;66.63;100933.89;106393;1273;138732;-70
2023/05/19 05:52:52;;;;;;;3.70;3.30;;;;;;;18.92;66.23;100934.59;106843;1270;139108;-68
2023/05/19 05:55:20;;;;;;;4.10;3.80;;;;;;;18.94;66.08;100937.89;106513;1272;22527;-70
2023/05/19 05:57:49;;;;;;;3.70;3.10;;;;;;;18.97;66.25;100941.39;106634;1278;138621;-69
2023/05/19 06:00:17;;;;;;;3.50;3.20;;;;;;;19.01;66.23;100944.03;107098;1273;138483;-68
2023/05/19 06:02:49;;;;;;;2.80;2.60;;;;;;;19.04;66.51;100943.58;106955;1274;22530;-71
2023/05/19 06:05:17;;;;;;;5.70;3.80;;;;;;;19.05;66.80;100944.25;106515;1273;137660;-69
2023/05/19 06:07:45;;;;;;;4.40;3.30;;;;;;;19.05;67.00;100940.91;106603;1271;22465;-69
2023/05/19 06:10:16;;;;;;;3.90;3.10;;;;;;;19.04;67.15;100941.79;106498;1274;139674;-69
2023/05/19 06:12:43;;;;;;;6.80;4.00;;;;;;;19.02;67.30;100939.86;106485;1278;139672;-72
2023/05/19 06:15:10;;;;;;;5.00;4.60;;;;;;;19.01;67.53;100942.73;106519;1278;22707;-69
2023/05/19 06:17:46;;;;;;;4.10;3.80;;;;;;;19.00;67.21;100945.20;106402;1271;138652;-69
2023/05/19 06:20:15;;;;;;;5.10;4.40;;;;;;;19.01;67.02;100945.11;106460;1273;137833;-72
2023/05/19 06:22:42;;;;;;;5.00;4.50;;;;;;;19.03;67.25;100948.95;106356;1273;22542;-71
2023/05/19 06:25:09;;;;;;;10.10;4.30;;;;;;;19.03;67.15;100949.19;106237;1280;139046;-74
2023/05/19 06:27:36;;;;;;;5.40;3.70;;;;;;;19.06;66.63;100950.98;106360;1273;24363;-70
2023/05/19 06:30:03;;;;;;;5.50;4.90;;;;;;;19.11;66.83;100950.58;106372;1278;138958;-69
2023/05/19 06:32:34;;;;;;;6.30;4.50;;;;;;;19.19;66.69;100953.41;106387;1270;138291;-70
2023/05/19 06:35:01;;;;;;;4.30;3.70;;;;;;;19.24;66.13;100956.19;106550;1275;24201;-69
2023/05/19 06:37:28;;;;;;;3.80;3.50;;;;;;;19.29;65.96;100953.13;106193;1273;137863;-69
2023/05/19 06:39:55;;;;;;;4.40;4.00;;;;;;;19.32;66.24;100953.17;106331;1274;24298;-69
2023/05/19 06:42:24;;;;;;;5.60;3.90;;;;;;;19.34;66.24;100954.02;106142;1273;138023;-69
2023/05/19 06:45:06;;;;;;;7.40;3.30;;;;;;;19.35;66.25;100951.67;106166;1273;138702;-70
2023/05/19 06:47:33;;;;;;;7.10;4.10;;;;;;;19.35;66.21;100952.80;106118;1277;22528;-73
2023/05/19 06:50:00;;;;;;;4.50;3.60;;;;;;;19.37;65.48;100956.54;106101;1277;138523;-72
2023/05/19 06:52:29;;;;;;;4.10;3.50;;;;;;;19.41;64.82;100956.48;106129;1272;138430;-70
2023/05/19 06:54:56;;;;;;;6.20;3.90;;;;;;;19.49;64.92;100952.48;106584;1279;22651;-70
2023/05/19 06:57:23;;;;;;;3.20;3.00;;;;;;;19.59;64.36;100957.73;106197;1273;139371;-72
2023/05/19 06:59:50;;;;;;;5.90;3.40;;;;;;;19.70;63.04;100957.23;106034;1279;25511;-69
2023/05/19 07:02:17;;;;;;;7.20;3.30;;;;;;;19.77;62.84;100960.30;106173;1279;138630;-72
2023/05/19 07:04:44;;;;;;;4.10;3.30;;;;;;;19.83;62.58;100961.04;106338;1273;140354;-70
2023/05/19 07:07:12;;;;;;;3.40;3.20;;;;;;;19.89;61.30;100966.67;106374;1274;22543;-63
2023/05/19 07:09:39;;;;;;;3.80;3.30;;;;;;;19.93;61.46;100963.15;106196;1273;139156;-64
2023/05/19 07:12:06;;;;;;;3.70;3.40;;;;;;;20.01;61.75;100964.25;106215;1278;137645;-64
2023/05/19 07:14:35;;;;;;;4.00;3.30;;;;;;;20.13;61.50;100966.63;106171;1274;24229;-61
2023/05/19 07:17:02;;;;;;;3.10;2.80;;;;;;;20.29;60.83;100958.55;106036;1273;137628;-62
2023/05/19 07:19:30;;;;;;;6.30;3.40;;;;;;;20.44;60.49;100955.02;106090;1272;26581;-64
2023/05/19 07:21:58;;;;;;;6.30;3.40;;;;;;;20.55;59.68;100959.35;106104;1276;138129;-63
2023/05/19 07:24:26;;;;;;;3.40;3.20;;;;;;;20.63;59.40;100956.63;106345;1276;138548;-65
2023/05/19 07:26:53;;;;;;;3.80;3.60;;;;;;;20.80;59.22;100965.40;106299;1278;25347;-63
2023/05/19 07:29:19;;;;;;;6.60;3.40;;;;;;;21.00;58.44;100967.78;106313;1279;138342;-65
2023/05/19 07:31:47;;;;;;;5.00;4.60;;;;;;;21.16;57.04;100975.79;106048;1273;27867;-63
2023/05/19 07:34:14;;;;;;;3.90;3.70;;;;;;;21.26;56.59;100976.50;106346;1272;139706;-64
2023/05/19 07:36:40;;;;;;;4.50;4.10;;;;;;;21.33;56.84;100969.58;106323;1273;139072;-61
2023/05/19 07:39:07;;;;;;;5.40;3.70;;;;;;;21.40;57.21;100971.23;106201;1276;22522;-63
2023/05/19 07:41:34;;;;;;;4.40;3.20;;;;;;;21.51;56.90;100971.12;106264;1274;138814;-64
2023/05/19 07:44:06;;;;;;;4.00;3.70;;;;;;;21.64;56.28;100969.92;106464;1274;25520;-65
2023/05/19 07:46:34;;;;;;;5.30;3.80;;;;;;;21.67;56.28;100968.23;106389;1272;25401;-63
2023/05/19 07:49:01;;;;;;;4.70;3.70;;;;;;;21.71;56.07;100968.89;106444;1279;137846;-64
2023/05/19 07:51:28;;;;;;;3.50;3.20;;;;;;;21.78;55.44;100967.76;106209;1279;26498;-65
2023/05/19 07:53:56;;;;;;;3.60;3.30;;;;;;;21.87;55.11;100965.40;106131;1273;138009;-63
2023/05/19 07:56:23;;;;;;;3.80;3.50;;;;;;;21.88;55.30;100961.33;106158;1272;139135;-65
2023/05/19 07:58:50;;;;;;;7.10;3.60;;;;;;;21.88;55.19;100963.38;106268;1270;22661;-65
2023/05/19 08:01:17;;;;;;;9.40;4.10;;;;;;;21.91;55.42;100963.11;106245;1278;137425;-64
2023/05/19 08:03:44;;;;;;;3.60;3.20;;;;;;;21.95;55.61;100961.48;106525;1278;22642;-65
2023/05/19 08:06:11;;;;;;;8.40;3.10;;;;;;;22.07;55.20;100962.86;106351;1273;137230;-63
2023/05/19 08:08:38;;;;;;;7.50;3.80;;;;;;;22.17;54.39;100961.84;106240;1274;139760;-64
2023/05/19 08:11:05;;;;;;;4.00;3.70;;;;;;;22.21;54.17;100960.65;106456;1278;22533;-64
2023/05/19 08:13:33;;;;;;;7.10;4.60;;;;;;;22.27;53.94;100960.27;106155;1276;139098;-64
2023/05/19 08:16:00;;;;;;;5.90;4.30;;;;;;;22.38;54.06;100957.60;106349;1279;26682;-65
2023/05/19 08:18:27;;;;;;;4.10;3.40;;;;;;;22.45;52.46;100956.23;106239;1278;138822;-65
2023/05/19 08:20:54;;;;;;;4.20;3.80;;;;;;;22.47;51.44;100960.33;106294;1274;137879;-66
2023/05/19 08:23:21;;;;;;;5.90;2.60;;;;;;;22.50;50.95;100959.00;106443;1274;25348;-66
2023/05/19 08:25:48;;;;;;;4.20;3.60;;;;;;;22.55;51.69;100958.85;106355;1274;137806;-63
2023/05/19 08:28:15;;;;;;;5.90;3.60;;;;;;;22.58;52.26;100963.17;106155;1273;139522;-65
2023/05/19 08:30:42;;;;;;;4.60;3.50;;;;;;;22.57;52.38;100964.95;106185;1274;22601;-64
2023/05/19 08:33:09;;;;;;;4.40;4.00;;;;;;;22.50;53.36;100965.41;106266;1277;137627;-63
2023/05/19 08:35:36;;;;;;;6.00;3.00;;;;;;;22.41;54.49;100968.13;106388;1270;24506;-63
2023/05/19 08:38:03;;;;;;;5.10;3.10;;;;;;;22.40;54.50;100967.45;106225;1271;137837;-62
2023/05/19 08:40:33;;;;;;;4.90;2.90;;;;;;;22.40;54.29;100963.60;106427;1273;137977;-64
2023/05/19 08:43:00;;;;;;;3.60;3.10;;;;;;;22.40;53.80;100961.92;106611;1272;22569;-62
2023/05/19 08:45:30;;;;;;;5.10;3.70;;;;;;;22.40;53.40;100960.45;106326;1271;138699;-65
2023/05/19 08:47:57;;;;;;;4.30;3.90;;;;;;;22.55;53.38;100967.86;106229;1271;25295;-65
2023/05/19 08:50:29;;;;;;;9.20;3.80;;;;;;;22.59;53.61;100966.55;106222;1271;138721;-62
2023/05/19 08:53:24;;;;;;;6.70;4.10;;;;;;;22.66;54.30;100966.05;106182;1274;137849;-63
2023/05/19 08:56:09;;;;;;;4.70;4.10;;;;;;;22.68;54.38;100975.63;106428;1273;23897;-63
2023/05/19 08:58:42;;;;;;;4.80;3.20;;;;;;;22.55;54.47;100975.58;106351;1272;24332;-64
2023/05/19 09:01:13;;;;;;;4.50;3.50;;;;;;;22.45;54.80;100973.51;106104;1279;139872;-67
2023/05/19 09:03:42;;;;;;;5.00;3.40;;;;;;;22.50;55.16;100971.23;106455;1279;24204;-62
2023/05/19 09:06:13;;;;;;;4.40;3.40;;;;;;;22.52;55.48;100972.13;106128;1278;137834;-63
2023/05/19 09:08:41;;;;;;;3.30;3.00;;;;;;;22.46;54.74;100972.75;106125;1275;140319;-64
2023/05/19 09:11:09;;;;;;;4.10;3.80;;;;;;;22.39;54.20;100971.85;106244;1274;25347;-64
2023/05/19 09:13:37;;;;;;;4.10;3.70;;;;;;;22.40;54.05;100973.87;106248;1277;137676;-63
2023/05/19 09:16:04;;;;;;;3.50;3.00;;;;;;;22.49;52.22;100972.14;106329;1277;137888;-64
2023/05/19 09:18:31;;;;;;;5.20;3.00;;;;;;;22.57;48.39;100978.70;106638;1271;23611;-63
2023/05/19 09:21:01;;;;;;;3.60;3.30;;;;;;;22.53;46.99;100980.98;106384;1272;138049;-63
2023/05/19 09:23:32;;;;;;;5.10;3.30;;;;;;;22.44;48.17;100976.73;106157;1279;22525;-63
2023/05/19 09:26:06;;;;;;;6.60;3.70;;;;;;;22.40;47.84;100968.33;106507;1270;137888;-66
2023/05/19 09:28:35;;;;;;;4.10;3.80;;;;;;;22.46;48.12;100965.90;106315;1274;138298;-63
2023/05/19 09:31:09;;;;;;;4.80;3.70;;;;;;;22.53;47.85;100964.15;106223;1273;25445;-64
2023/05/19 09:33:38;;;;;;;4.90;3.90;;;;;;;22.56;48.00;100963.68;106381;1273;137915;-66
2023/05/19 09:36:09;;;;;;;3.60;3.40;;;;;;;22.53;49.87;100962.24;106435;1274;138518;-63
2023/05/19 09:38:38;;;;;;;5.20;3.90;;;;;;;22.53;49.30;100961.05;106329;1276;26494;-60
2023/05/19 09:41:06;;;;;;;8.50;4.80;;;;;;;22.54;47.95;100965.03;106208;1276;137915;-62
2023/05/19 09:43:34;;;;;;;10.60;4.90;;;;;;;22.53;48.41;100964.20;106498;1273;22528;-63
2023/05/19 09:46:05;;;;;;;6.90;5.90;;;;;;;22.50;50.17;100961.88;106311;1274;140083;-64
2023/05/19 09:48:36;;;;;;;9.30;6.90;;;;;;;22.50;51.51;100963.19;106215;1264;138780;-63
2023/05/19 09:51:06;;;;;;;8.00;6.30;;;;;;;22.45;51.99;100969.25;106402;1272;22536;-62
2023/05/19 09:53:34;;;;;;;7.10;6.30;;;;;;;22.38;52.20;100965.64;106096;1277;139151;-62
2023/05/19 09:56:02;;;;;;;6.40;5.70;;;;;;;22.35;52.52;100965.44;106245;1274;22534;-64
2023/05/19 09:58:33;;;;;;;8.30;6.30;;;;;;;22.27;52.95;100967.23;106447;1279;22532;-61
2023/05/19 10:01:02;;;;;;;6.90;5.90;;;;;;;22.24;52.73;100977.20;106260;1272;139745;-62
2023/05/19 10:03:31;;;;;;;7.50;6.10;;;;;;;22.21;53.17;100969.67;106596;1271;25332;-64
2023/05/19 10:06:00;;;;;;;7.90;7.10;;;;;;;22.21;53.63;100964.67;106607;1277;139256;-63
2023/05/19 10:08:29;;;;;;;9.90;6.70;;;;;;;22.24;54.15;100973.23;106030;1274;138889;-63
2023/05/19 10:10:57;;;;;;;10.80;6.20;;;;;;;22.22;54.29;100961.86;106156;1274;23125;-63
2023/05/19 10:13:24;;;;;;;7.90;7.00;;;;;;;22.23;53.94;100961.18;106213;1275;138442;-64
2023/05/19 10:15:52;;;;;;;10.00;6.70;;;;;;;22.25;53.93;100956.38;107605;1277;25281;-62
2023/05/19 10:18:28;;;;;;;8.20;6.40;;;;;;;22.27;53.78;100961.33;106175;1273;137839;-65
2023/05/19 10:20:56;;;;;;;7.70;7.10;;;;;;;22.30;53.61;100960.45;106249;1275;139689;-63
2023/05/19 10:23:24;;;;;;;6.70;5.60;;;;;;;22.34;52.70;100964.08;106194;1272;24611;-64
2023/05/19 10:25:55;;;;;;;10.00;5.50;;;;;;;22.39;52.42;100964.41;106342;1279;137765;-64
2023/05/19 10:28:26;;;;;;;5.10;4.50;;;;;;;22.45;51.34;100968.60;106166;1272;138324;-62
2023/05/19 10:31:00;;;;;;;5.30;4.80;;;;;;;22.48;51.48;100963.92;106358;1279;24703;-63
2023/05/19 10:33:38;;;;;;;5.90;5.30;;;;;;;22.54;51.24;100959.98;106209;1272;138682;-64
2023/05/19 10:36:24;;;;;;;6.10;4.50;;;;;;;22.59;51.11;100950.80;106089;1273;140229;-64
2023/05/19 10:39:21;;;;;;;6.50;4.70;;;;;;;22.54;51.02;100954.65;106285;1272;25409;-65
2023/05/19 10:42:15;;;;;;;5.10;2.90;;;;;;;22.49;49.62;100952.58;106308;1277;137912;-63
2023/05/19 10:45:12;;;;;;;4.10;3.60;;;;;;;22.46;48.56;100959.00;106185;1272;138138;-64
2023/05/19 10:47:43;;;;;;;8.40;3.30;;;;;;;22.38;48.72;100956.83;106225;1272;22509;-67
2023/05/19 10:50:10;;;;;;;3.70;2.70;;;;;;;22.30;49.76;100960.32;106318;1271;139375;-63
2023/05/19 10:52:38;;;;;;;3.70;3.00;;;;;;;22.29;50.61;100954.78;106284;1272;138246;-66
2023/05/19 10:55:16;;;;;;;5.50;3.40;;;;;;;22.37;49.84;100951.29;106288;1274;22529;-61
2023/05/19 10:57:55;;;;;;;3.50;2.30;;;;;;;22.48;48.88;100955.45;106172;1271;140525;-64
2023/05/19 11:00:27;;;;;;;2.70;2.60;;;;;;;22.56;47.91;100952.34;106142;1272;139136;-64
2023/05/19 11:03:14;;;;;;;5.30;3.90;;;;;;;22.58;48.29;100952.09;106371;1273;24207;-63
2023/05/19 11:05:44;;;;;;;2.70;2.50;;;;;;;22.56;49.16;100958.47;108709;1276;139475;-63
2023/05/19 11:08:11;;;;;;;3.50;3.20;;;;;;;22.49;49.43;100958.02;107500;1274;139808;-62
2023/05/19 11:10:43;;;;;;;7.60;3.20;;;;;;;22.47;49.60;100964.19;106278;1275;24383;-66
2023/05/19 11:13:18;;;;;;;4.60;3.00;;;;;;;22.39;50.07;100971.69;106201;1276;137601;-64
2023/05/19 11:15:45;;;;;;;4.20;2.90;;;;;;;22.20;51.06;100962.70;106395;1274;24883;-63
2023/05/19 11:18:16;;;;;;;7.90;3.00;;;;;;;22.06;52.64;100960.44;106359;1272;137925;-64
2023/05/19 11:20:54;;;;;;;3.70;3.40;;;;;;;21.98;53.14;100970.11;106257;1275;139992;-64
2023/05/19 11:23:24;;;;;;;3.90;2.70;;;;;;;21.90;52.86;100964.77;106302;1274;22775;-63
2023/05/19 11:25:54;;;;;;;3.80;3.00;;;;;;;21.83;52.45;100971.25;106140;1275;138186;-64
2023/05/19 11:28:26;;;;;;;5.10;3.10;;;;;;;21.73;53.66;100971.55;106163;1277;139555;-64